sensor_id;sensor_type;location;lat;lon;timestamp;P1;durP1;ratioP1;P2;durP2;ratioP2
58338;SDS011;68636;52.704;6.536;2023-04-01T00:00:00;6.38;;;2.58;;
58338;SDS011;68636;52.704;6.536;2023-04-01T00:02:25;5.53;;;2.00;;
58338;SDS011;68636;52.704;6.536;2023-04-01T00:04:51;7.15;;;2.63;;
58338;SDS011;68636;52.704;6.536;2023-04-01T00:07:17;8.40;;;3.20;;
58338;SDS011;68636;52.704;6.536;2023-04-01T00:09:43;11.30;;;2.78;;
58338;SDS011;68636;52.704;6.536;2023-04-01T00:12:08;8.38;;;2.00;;
58338;SDS011;68636;52.704;6.536;2023-04-01T00:14:34;7.00;;;2.78;;
58338;SDS011;68636;52.704;6.536;2023-04-01T00:19:27;7.07;;;2.67;;
58338;SDS011;68636;52.704;6.536;2023-04-01T00:21:53;8.63;;;2.83;;
58338;SDS011;68636;52.704;6.536;2023-04-01T00:24:19;7.07;;;2.58;;
58338;SDS011;68636;52.704;6.536;2023-04-01T00:26:44;8.23;;;2.63;;
58338;SDS011;68636;52.704;6.536;2023-04-01T00:29:10;5.95;;;2.20;;
58338;SDS011;68636;52.704;6.536;2023-04-01T00:31:36;8.65;;;2.40;;
58338;SDS011;68636;52.704;6.536;2023-04-01T00:34:01;7.53;;;2.05;;
58338;SDS011;68636;52.704;6.536;2023-04-01T00:36:27;7.05;;;1.95;;
58338;SDS011;68636;52.704;6.536;2023-04-01T00:38:53;8.35;;;2.20;;
58338;SDS011;68636;52.704;6.536;2023-04-01T00:41:19;5.05;;;2.30;;
58338;SDS011;68636;52.704;6.536;2023-04-01T00:43:47;6.32;;;2.30;;
58338;SDS011;68636;52.704;6.536;2023-04-01T00:46:15;6.30;;;2.30;;
58338;SDS011;68636;52.704;6.536;2023-04-01T00:48:48;6.30;;;1.83;;
58338;SDS011;68636;52.704;6.536;2023-04-01T00:51:20;5.47;;;1.75;;
58338;SDS011;68636;52.704;6.536;2023-04-01T00:53:51;7.30;;;2.20;;
58338;SDS011;68636;52.704;6.536;2023-04-01T00:56:36;7.82;;;2.67;;
58338;SDS011;68636;52.704;6.536;2023-04-01T00:59:07;9.67;;;2.60;;
58338;SDS011;68636;52.704;6.536;2023-04-01T01:01:44;7.05;;;2.03;;
58338;SDS011;68636;52.704;6.536;2023-04-01T01:10:15;7.75;;;2.90;;
58338;SDS011;68636;52.704;6.536;2023-04-01T01:15:30;7.75;;;2.88;;
58338;SDS011;68636;52.704;6.536;2023-04-01T01:35:22;6.30;;;2.55;;
58338;SDS011;68636;52.704;6.536;2023-04-01T01:37:50;9.48;;;2.47;;
58338;SDS011;68636;52.704;6.536;2023-04-01T01:40:21;8.18;;;2.67;;
58338;SDS011;68636;52.704;6.536;2023-04-01T01:42:50;8.50;;;3.03;;
58338;SDS011;68636;52.704;6.536;2023-04-01T01:45:19;7.80;;;2.40;;
58338;SDS011;68636;52.704;6.536;2023-04-01T01:47:48;13.25;;;3.25;;
58338;SDS011;68636;52.704;6.536;2023-04-01T01:50:16;10.98;;;3.22;;
58338;SDS011;68636;52.704;6.536;2023-04-01T01:52:43;8.65;;;2.65;;
58338;SDS011;68636;52.704;6.536;2023-04-01T01:57:57;6.72;;;2.33;;
58338;SDS011;68636;52.704;6.536;2023-04-01T02:00:24;6.72;;;2.42;;
58338;SDS011;68636;52.704;6.536;2023-04-01T02:02:51;7.20;;;2.60;;
58338;SDS011;68636;52.704;6.536;2023-04-01T02:05:20;8.52;;;2.75;;
58338;SDS011;68636;52.704;6.536;2023-04-01T02:08:10;8.65;;;2.70;;
58338;SDS011;68636;52.704;6.536;2023-04-01T02:10:43;9.85;;;3.08;;
58338;SDS011;68636;52.704;6.536;2023-04-01T02:13:27;7.38;;;2.65;;
58338;SDS011;68636;52.704;6.536;2023-04-01T02:15:58;7.22;;;2.50;;
58338;SDS011;68636;52.704;6.536;2023-04-01T02:18:27;8.35;;;2.70;;
58338;SDS011;68636;52.704;6.536;2023-04-01T02:20:55;9.07;;;2.90;;
58338;SDS011;68636;52.704;6.536;2023-04-01T02:23:23;8.63;;;3.13;;
58338;SDS011;68636;52.704;6.536;2023-04-01T02:25:49;7.10;;;2.78;;
58338;SDS011;68636;52.704;6.536;2023-04-01T02:28:16;7.30;;;2.88;;
58338;SDS011;68636;52.704;6.536;2023-04-01T02:30:45;8.88;;;3.15;;
58338;SDS011;68636;52.704;6.536;2023-04-01T02:33:14;8.68;;;3.10;;
58338;SDS011;68636;52.704;6.536;2023-04-01T02:35:41;9.35;;;2.92;;
58338;SDS011;68636;52.704;6.536;2023-04-01T02:38:07;7.18;;;2.88;;
58338;SDS011;68636;52.704;6.536;2023-04-01T02:40:43;8.25;;;2.85;;
58338;SDS011;68636;52.704;6.536;2023-04-01T02:43:14;9.38;;;3.33;;
58338;SDS011;68636;52.704;6.536;2023-04-01T02:45:41;9.45;;;3.13;;
58338;SDS011;68636;52.704;6.536;2023-04-01T02:48:07;9.88;;;3.40;;
58338;SDS011;68636;52.704;6.536;2023-04-01T02:50:33;9.98;;;3.60;;
58338;SDS011;68636;52.704;6.536;2023-04-01T02:53:00;9.77;;;3.55;;
58338;SDS011;68636;52.704;6.536;2023-04-01T02:55:28;10.30;;;3.83;;
58338;SDS011;68636;52.704;6.536;2023-04-01T02:57:55;10.25;;;3.05;;
58338;SDS011;68636;52.704;6.536;2023-04-01T03:00:21;9.82;;;3.15;;
58338;SDS011;68636;52.704;6.536;2023-04-01T03:02:47;9.73;;;3.53;;
58338;SDS011;68636;52.704;6.536;2023-04-01T03:05:12;9.15;;;3.08;;
58338;SDS011;68636;52.704;6.536;2023-04-01T03:07:38;11.02;;;3.90;;
58338;SDS011;68636;52.704;6.536;2023-04-01T03:10:05;9.85;;;3.30;;
58338;SDS011;68636;52.704;6.536;2023-04-01T03:12:31;7.18;;;3.28;;
58338;SDS011;68636;52.704;6.536;2023-04-01T03:14:57;11.48;;;3.80;;
58338;SDS011;68636;52.704;6.536;2023-04-01T03:17:23;9.80;;;3.47;;
58338;SDS011;68636;52.704;6.536;2023-04-01T03:19:48;8.80;;;2.88;;
58338;SDS011;68636;52.704;6.536;2023-04-01T03:22:14;8.63;;;3.63;;
58338;SDS011;68636;52.704;6.536;2023-04-01T03:24:40;9.02;;;3.53;;
58338;SDS011;68636;52.704;6.536;2023-04-01T03:27:05;10.57;;;3.40;;
58338;SDS011;68636;52.704;6.536;2023-04-01T03:29:31;9.80;;;3.70;;
58338;SDS011;68636;52.704;6.536;2023-04-01T03:31:57;8.48;;;3.20;;
58338;SDS011;68636;52.704;6.536;2023-04-01T03:34:24;9.80;;;3.35;;
58338;SDS011;68636;52.704;6.536;2023-04-01T03:36:51;10.45;;;3.42;;
58338;SDS011;68636;52.704;6.536;2023-04-01T03:39:17;8.82;;;3.22;;
58338;SDS011;68636;52.704;6.536;2023-04-01T03:41:45;10.50;;;3.33;;
58338;SDS011;68636;52.704;6.536;2023-04-01T03:44:11;9.82;;;3.28;;
58338;SDS011;68636;52.704;6.536;2023-04-01T03:46:37;9.45;;;3.50;;
58338;SDS011;68636;52.704;6.536;2023-04-01T03:49:06;10.85;;;3.42;;
58338;SDS011;68636;52.704;6.536;2023-04-01T03:51:39;8.88;;;3.17;;
58338;SDS011;68636;52.704;6.536;2023-04-01T03:54:07;9.88;;;3.08;;
58338;SDS011;68636;52.704;6.536;2023-04-01T03:56:33;8.65;;;3.10;;
58338;SDS011;68636;52.704;6.536;2023-04-01T03:59:01;7.32;;;2.92;;
58338;SDS011;68636;52.704;6.536;2023-04-01T04:01:28;8.07;;;3.00;;
58338;SDS011;68636;52.704;6.536;2023-04-01T04:03:55;10.80;;;3.58;;
58338;SDS011;68636;52.704;6.536;2023-04-01T04:06:21;9.60;;;3.15;;
58338;SDS011;68636;52.704;6.536;2023-04-01T04:08:48;8.05;;;3.28;;
58338;SDS011;68636;52.704;6.536;2023-04-01T04:11:14;7.13;;;2.83;;
58338;SDS011;68636;52.704;6.536;2023-04-01T04:13:40;9.30;;;3.25;;
58338;SDS011;68636;52.704;6.536;2023-04-01T04:16:07;8.85;;;3.22;;
58338;SDS011;68636;52.704;6.536;2023-04-01T04:18:33;8.43;;;2.55;;
58338;SDS011;68636;52.704;6.536;2023-04-01T04:20:59;7.25;;;2.92;;
58338;SDS011;68636;52.704;6.536;2023-04-01T04:23:25;7.18;;;3.08;;
58338;SDS011;68636;52.704;6.536;2023-04-01T04:25:54;8.15;;;3.20;;
58338;SDS011;68636;52.704;6.536;2023-04-01T04:28:22;11.05;;;3.72;;
58338;SDS011;68636;52.704;6.536;2023-04-01T04:30:48;9.57;;;3.30;;
58338;SDS011;68636;52.704;6.536;2023-04-01T04:33:13;8.18;;;2.78;;
58338;SDS011;68636;52.704;6.536;2023-04-01T04:35:39;8.23;;;2.95;;
58338;SDS011;68636;52.704;6.536;2023-04-01T04:38:05;8.02;;;3.40;;
58338;SDS011;68636;52.704;6.536;2023-04-01T04:40:30;9.93;;;3.60;;
58338;SDS011;68636;52.704;6.536;2023-04-01T04:42:56;8.75;;;3.22;;
58338;SDS011;68636;52.704;6.536;2023-04-01T04:45:22;7.50;;;2.78;;
58338;SDS011;68636;52.704;6.536;2023-04-01T04:47:47;7.85;;;2.78;;
58338;SDS011;68636;52.704;6.536;2023-04-01T04:50:13;9.05;;;3.03;;
58338;SDS011;68636;52.704;6.536;2023-04-01T04:52:39;9.20;;;2.85;;
58338;SDS011;68636;52.704;6.536;2023-04-01T04:55:05;8.57;;;3.30;;
58338;SDS011;68636;52.704;6.536;2023-04-01T04:57:31;9.35;;;3.30;;
58338;SDS011;68636;52.704;6.536;2023-04-01T04:59:57;8.65;;;3.60;;
58338;SDS011;68636;52.704;6.536;2023-04-01T05:02:23;8.30;;;3.17;;
58338;SDS011;68636;52.704;6.536;2023-04-01T05:04:48;11.68;;;3.15;;
58338;SDS011;68636;52.704;6.536;2023-04-01T05:07:14;8.60;;;2.70;;
58338;SDS011;68636;52.704;6.536;2023-04-01T05:09:40;8.65;;;3.25;;
58338;SDS011;68636;52.704;6.536;2023-04-01T05:12:05;7.40;;;3.17;;
58338;SDS011;68636;52.704;6.536;2023-04-01T05:14:31;7.43;;;2.60;;
58338;SDS011;68636;52.704;6.536;2023-04-01T05:16:57;6.82;;;2.45;;
58338;SDS011;68636;52.704;6.536;2023-04-01T05:19:22;7.15;;;2.30;;
58338;SDS011;68636;52.704;6.536;2023-04-01T05:21:48;7.28;;;2.75;;
58338;SDS011;68636;52.704;6.536;2023-04-01T05:24:14;8.82;;;2.72;;
58338;SDS011;68636;52.704;6.536;2023-04-01T05:26:40;8.00;;;2.78;;
58338;SDS011;68636;52.704;6.536;2023-04-01T05:29:05;7.90;;;2.60;;
58338;SDS011;68636;52.704;6.536;2023-04-01T05:31:31;7.35;;;2.58;;
58338;SDS011;68636;52.704;6.536;2023-04-01T05:33:57;8.07;;;2.53;;
58338;SDS011;68636;52.704;6.536;2023-04-01T05:36:22;6.72;;;2.38;;
58338;SDS011;68636;52.704;6.536;2023-04-01T05:38:48;6.90;;;2.10;;
58338;SDS011;68636;52.704;6.536;2023-04-01T05:41:14;7.53;;;2.65;;
58338;SDS011;68636;52.704;6.536;2023-04-01T05:43:40;7.35;;;2.88;;
58338;SDS011;68636;52.704;6.536;2023-04-01T05:46:07;7.22;;;2.60;;
58338;SDS011;68636;52.704;6.536;2023-04-01T05:48:33;7.03;;;2.30;;
58338;SDS011;68636;52.704;6.536;2023-04-01T05:51:00;7.40;;;2.65;;
58338;SDS011;68636;52.704;6.536;2023-04-01T05:53:26;7.50;;;2.42;;
58338;SDS011;68636;52.704;6.536;2023-04-01T05:55:52;10.98;;;4.05;;
58338;SDS011;68636;52.704;6.536;2023-04-01T05:58:17;13.00;;;5.80;;
58338;SDS011;68636;52.704;6.536;2023-04-01T06:00:43;10.70;;;3.92;;
58338;SDS011;68636;52.704;6.536;2023-04-01T06:03:09;8.57;;;2.80;;
58338;SDS011;68636;52.704;6.536;2023-04-01T06:05:39;7.53;;;2.58;;
58338;SDS011;68636;52.704;6.536;2023-04-01T06:08:13;8.77;;;3.10;;
58338;SDS011;68636;52.704;6.536;2023-04-01T06:10:48;10.60;;;3.55;;
58338;SDS011;68636;52.704;6.536;2023-04-01T06:18:59;10.38;;;3.75;;
58338;SDS011;68636;52.704;6.536;2023-04-01T06:22:00;11.15;;;3.70;;
58338;SDS011;68636;52.704;6.536;2023-04-01T06:32:53;16.00;;;6.15;;
58338;SDS011;68636;52.704;6.536;2023-04-01T06:47:45;16.58;;;5.80;;
58338;SDS011;68636;52.704;6.536;2023-04-01T06:55:30;19.00;;;6.88;;
58338;SDS011;68636;52.704;6.536;2023-04-01T06:58:03;19.60;;;6.47;;
58338;SDS011;68636;52.704;6.536;2023-04-01T07:00:32;19.15;;;6.15;;
58338;SDS011;68636;52.704;6.536;2023-04-01T07:05:56;21.77;;;4.95;;
58338;SDS011;68636;52.704;6.536;2023-04-01T07:08:26;17.92;;;5.93;;
58338;SDS011;68636;52.704;6.536;2023-04-01T07:13:31;13.77;;;4.70;;
58338;SDS011;68636;52.704;6.536;2023-04-01T07:16:08;12.50;;;3.85;;
58338;SDS011;68636;52.704;6.536;2023-04-01T07:18:42;12.55;;;4.25;;
58338;SDS011;68636;52.704;6.536;2023-04-01T07:21:22;12.32;;;4.40;;
58338;SDS011;68636;52.704;6.536;2023-04-01T07:23:56;12.70;;;4.47;;
58338;SDS011;68636;52.704;6.536;2023-04-01T07:26:28;12.85;;;4.25;;
58338;SDS011;68636;52.704;6.536;2023-04-01T07:28:53;11.48;;;4.55;;
58338;SDS011;68636;52.704;6.536;2023-04-01T07:31:22;15.15;;;4.38;;
58338;SDS011;68636;52.704;6.536;2023-04-01T07:33:58;14.95;;;4.90;;
58338;SDS011;68636;52.704;6.536;2023-04-01T07:36:40;13.18;;;4.85;;
58338;SDS011;68636;52.704;6.536;2023-04-01T07:42:55;13.60;;;4.10;;
58338;SDS011;68636;52.704;6.536;2023-04-01T07:50:41;11.05;;;3.80;;
58338;SDS011;68636;52.704;6.536;2023-04-01T07:53:16;9.20;;;3.13;;
58338;SDS011;68636;52.704;6.536;2023-04-01T08:09:09;12.00;;;4.35;;
58338;SDS011;68636;52.704;6.536;2023-04-01T08:12:04;12.90;;;4.47;;
58338;SDS011;68636;52.704;6.536;2023-04-01T08:17:38;13.57;;;4.57;;
58338;SDS011;68636;52.704;6.536;2023-04-01T08:20:24;13.70;;;4.82;;
58338;SDS011;68636;52.704;6.536;2023-04-01T08:22:58;11.82;;;4.38;;
58338;SDS011;68636;52.704;6.536;2023-04-01T08:25:30;13.77;;;4.95;;
58338;SDS011;68636;52.704;6.536;2023-04-01T08:28:10;12.45;;;4.65;;
58338;SDS011;68636;52.704;6.536;2023-04-01T08:30:48;12.27;;;4.53;;
58338;SDS011;68636;52.704;6.536;2023-04-01T08:33:26;11.45;;;4.07;;
58338;SDS011;68636;52.704;6.536;2023-04-01T08:38:33;11.75;;;4.40;;
58338;SDS011;68636;52.704;6.536;2023-04-01T08:44:10;11.40;;;3.72;;
58338;SDS011;68636;52.704;6.536;2023-04-01T08:52:35;9.98;;;3.38;;
58338;SDS011;68636;52.704;6.536;2023-04-01T08:58:02;10.57;;;3.75;;
58338;SDS011;68636;52.704;6.536;2023-04-01T09:00:43;11.32;;;3.85;;
58338;SDS011;68636;52.704;6.536;2023-04-01T09:27:28;5.88;;;1.63;;
58338;SDS011;68636;52.704;6.536;2023-04-01T09:35:58;5.68;;;1.80;;
58338;SDS011;68636;52.704;6.536;2023-04-01T09:44:06;3.55;;;0.90;;
58338;SDS011;68636;52.704;6.536;2023-04-01T09:46:48;5.78;;;1.35;;
58338;SDS011;68636;52.704;6.536;2023-04-01T09:49:42;4.00;;;1.30;;
58338;SDS011;68636;52.704;6.536;2023-04-01T09:55:22;4.00;;;1.10;;
58338;SDS011;68636;52.704;6.536;2023-04-01T10:03:36;5.47;;;2.10;;
58338;SDS011;68636;52.704;6.536;2023-04-01T10:09:33;5.05;;;1.73;;
58338;SDS011;68636;52.704;6.536;2023-04-01T10:28:30;6.25;;;2.60;;
58338;SDS011;68636;52.704;6.536;2023-04-01T10:31:30;7.30;;;2.45;;
58338;SDS011;68636;52.704;6.536;2023-04-01T10:36:58;6.35;;;2.70;;
58338;SDS011;68636;52.704;6.536;2023-04-01T10:39:33;6.07;;;2.75;;
58338;SDS011;68636;52.704;6.536;2023-04-01T10:42:11;6.50;;;3.03;;
58338;SDS011;68636;52.704;6.536;2023-04-01T10:47:19;8.07;;;2.72;;
58338;SDS011;68636;52.704;6.536;2023-04-01T10:50:01;5.78;;;2.55;;
58338;SDS011;68636;52.704;6.536;2023-04-01T11:04:29;7.10;;;3.20;;
58338;SDS011;68636;52.704;6.536;2023-04-01T11:12:59;6.85;;;3.13;;
58338;SDS011;68636;52.704;6.536;2023-04-01T11:15:26;8.48;;;2.40;;
58338;SDS011;68636;52.704;6.536;2023-04-01T11:21:38;7.07;;;3.50;;
58338;SDS011;68636;52.704;6.536;2023-04-01T11:24:17;7.07;;;3.65;;
58338;SDS011;68636;52.704;6.536;2023-04-01T11:30:16;6.55;;;2.92;;
58338;SDS011;68636;52.704;6.536;2023-04-01T11:35:42;7.65;;;3.00;;
58338;SDS011;68636;52.704;6.536;2023-04-01T11:38:57;6.80;;;3.13;;
58338;SDS011;68636;52.704;6.536;2023-04-01T11:44:33;7.30;;;2.83;;
58338;SDS011;68636;52.704;6.536;2023-04-01T11:52:47;8.43;;;4.97;;
58338;SDS011;68636;52.704;6.536;2023-04-01T11:55:31;8.98;;;4.90;;
58338;SDS011;68636;52.704;6.536;2023-04-01T12:12:16;8.02;;;3.72;;
58338;SDS011;68636;52.704;6.536;2023-04-01T12:32:40;7.07;;;3.70;;
58338;SDS011;68636;52.704;6.536;2023-04-01T12:51:36;5.75;;;2.78;;
58338;SDS011;68636;52.704;6.536;2023-04-01T12:59:38;7.93;;;2.55;;
58338;SDS011;68636;52.704;6.536;2023-04-01T13:02:18;5.35;;;2.40;;
58338;SDS011;68636;52.704;6.536;2023-04-01T13:05:24;6.95;;;3.17;;
58338;SDS011;68636;52.704;6.536;2023-04-01T13:10:45;6.65;;;2.78;;
58338;SDS011;68636;52.704;6.536;2023-04-01T13:15:50;6.53;;;2.90;;
58338;SDS011;68636;52.704;6.536;2023-04-01T13:18:30;7.13;;;2.80;;
58338;SDS011;68636;52.704;6.536;2023-04-01T13:29:30;5.15;;;2.50;;
58338;SDS011;68636;52.704;6.536;2023-04-01T13:43:14;4.45;;;1.83;;
58338;SDS011;68636;52.704;6.536;2023-04-01T14:22:25;5.97;;;2.40;;
58338;SDS011;68636;52.704;6.536;2023-04-01T14:27:59;6.07;;;2.60;;
58338;SDS011;68636;52.704;6.536;2023-04-01T14:30:35;4.53;;;1.73;;
58338;SDS011;68636;52.704;6.536;2023-04-01T14:36:00;5.85;;;2.28;;
58338;SDS011;68636;52.704;6.536;2023-04-01T14:39:00;4.40;;;1.98;;
58338;SDS011;68636;52.704;6.536;2023-04-01T14:44:38;5.78;;;2.30;;
58338;SDS011;68636;52.704;6.536;2023-04-01T14:50:40;8.18;;;2.53;;
58338;SDS011;68636;52.704;6.536;2023-04-01T14:55:57;6.20;;;2.55;;
58338;SDS011;68636;52.704;6.536;2023-04-01T14:58:46;6.10;;;2.55;;
58338;SDS011;68636;52.704;6.536;2023-04-01T15:12:26;7.65;;;2.70;;
58338;SDS011;68636;52.704;6.536;2023-04-01T15:28:57;6.15;;;2.72;;
58338;SDS011;68636;52.704;6.536;2023-04-01T16:02:31;5.47;;;2.80;;
58338;SDS011;68636;52.704;6.536;2023-04-01T16:05:06;5.32;;;2.70;;
58338;SDS011;68636;52.704;6.536;2023-04-01T16:10:58;4.80;;;2.47;;
58338;SDS011;68636;52.704;6.536;2023-04-01T16:13:30;7.20;;;2.53;;
58338;SDS011;68636;52.704;6.536;2023-04-01T16:16:14;5.30;;;2.42;;
58338;SDS011;68636;52.704;6.536;2023-04-01T16:21:48;6.30;;;2.20;;
58338;SDS011;68636;52.704;6.536;2023-04-01T16:32:59;4.20;;;2.05;;
58338;SDS011;68636;52.704;6.536;2023-04-01T16:41:17;4.22;;;2.40;;
58338;SDS011;68636;52.704;6.536;2023-04-01T16:44:17;6.55;;;2.33;;
58338;SDS011;68636;52.704;6.536;2023-04-01T16:46:51;4.00;;;1.55;;
58338;SDS011;68636;52.704;6.536;2023-04-01T16:55:17;6.00;;;2.47;;
58338;SDS011;68636;52.704;6.536;2023-04-01T16:57:51;4.93;;;2.30;;
58338;SDS011;68636;52.704;6.536;2023-04-01T17:01:07;4.60;;;2.08;;
58338;SDS011;68636;52.704;6.536;2023-04-01T17:03:20;4.47;;;2.20;;
58338;SDS011;68636;52.704;6.536;2023-04-01T17:05:59;4.47;;;2.33;;
58338;SDS011;68636;52.704;6.536;2023-04-01T17:08:37;5.22;;;2.33;;
58338;SDS011;68636;52.704;6.536;2023-04-01T17:13:58;4.93;;;2.10;;
58338;SDS011;68636;52.704;6.536;2023-04-01T17:16:38;5.22;;;2.90;;
58338;SDS011;68636;52.704;6.536;2023-04-01T17:24:45;3.55;;;1.83;;
58338;SDS011;68636;52.704;6.536;2023-04-01T17:38:48;6.22;;;2.67;;
58338;SDS011;68636;52.704;6.536;2023-04-01T17:46:31;6.05;;;3.20;;
58338;SDS011;68636;52.704;6.536;2023-04-01T17:51:59;7.60;;;4.13;;
58338;SDS011;68636;52.704;6.536;2023-04-01T17:54:36;7.13;;;4.30;;
58338;SDS011;68636;52.704;6.536;2023-04-01T18:06:34;7.53;;;3.30;;
58338;SDS011;68636;52.704;6.536;2023-04-01T18:27:42;9.95;;;4.55;;
58338;SDS011;68636;52.704;6.536;2023-04-01T18:30:15;6.95;;;3.47;;
58338;SDS011;68636;52.704;6.536;2023-04-01T18:38:37;7.20;;;3.90;;
58338;SDS011;68636;52.704;6.536;2023-04-01T18:46:54;7.68;;;4.60;;
58338;SDS011;68636;52.704;6.536;2023-04-01T18:49:29;9.18;;;4.25;;
58338;SDS011;68636;52.704;6.536;2023-04-01T18:52:28;8.75;;;4.18;;
58338;SDS011;68636;52.704;6.536;2023-04-01T18:57:55;12.40;;;5.13;;
58338;SDS011;68636;52.704;6.536;2023-04-01T19:00:39;10.45;;;5.35;;
58338;SDS011;68636;52.704;6.536;2023-04-01T19:03:24;9.05;;;4.45;;
58338;SDS011;68636;52.704;6.536;2023-04-01T19:06:21;10.75;;;4.72;;
58338;SDS011;68636;52.704;6.536;2023-04-01T19:11:49;10.32;;;4.90;;
58338;SDS011;68636;52.704;6.536;2023-04-01T19:17:29;11.23;;;5.25;;
58338;SDS011;68636;52.704;6.536;2023-04-01T19:28:25;13.40;;;6.07;;
58338;SDS011;68636;52.704;6.536;2023-04-01T19:34:11;16.55;;;6.70;;
58338;SDS011;68636;52.704;6.536;2023-04-01T19:36:54;15.10;;;6.50;;
58338;SDS011;68636;52.704;6.536;2023-04-01T19:42:04;12.77;;;6.38;;
58338;SDS011;68636;52.704;6.536;2023-04-01T19:47:59;13.88;;;6.28;;
58338;SDS011;68636;52.704;6.536;2023-04-01T19:53:18;10.35;;;4.35;;
58338;SDS011;68636;52.704;6.536;2023-04-01T19:56:33;12.98;;;6.43;;
58338;SDS011;68636;52.704;6.536;2023-04-01T19:58:45;13.32;;;6.45;;
58338;SDS011;68636;52.704;6.536;2023-04-01T20:01:30;11.05;;;6.10;;
58338;SDS011;68636;52.704;6.536;2023-04-01T20:07:00;14.93;;;7.68;;
58338;SDS011;68636;52.704;6.536;2023-04-01T20:17:52;16.00;;;7.85;;
58338;SDS011;68636;52.704;6.536;2023-04-01T20:20:21;14.82;;;7.22;;
58338;SDS011;68636;52.704;6.536;2023-04-01T20:23:07;17.48;;;9.48;;
58338;SDS011;68636;52.704;6.536;2023-04-01T20:25:56;13.45;;;7.15;;
58338;SDS011;68636;52.704;6.536;2023-04-01T20:28:32;14.35;;;6.47;;
58338;SDS011;68636;52.704;6.536;2023-04-01T20:33:50;14.05;;;7.80;;
58338;SDS011;68636;52.704;6.536;2023-04-01T20:49:40;14.60;;;6.85;;
58338;SDS011;68636;52.704;6.536;2023-04-01T21:06:22;15.98;;;7.03;;
58338;SDS011;68636;52.704;6.536;2023-04-01T21:09:11;20.13;;;7.90;;
58338;SDS011;68636;52.704;6.536;2023-04-01T21:11:48;16.05;;;8.73;;
58338;SDS011;68636;52.704;6.536;2023-04-01T21:14:59;20.75;;;7.35;;
58338;SDS011;68636;52.704;6.536;2023-04-01T21:17:51;19.73;;;8.40;;
58338;SDS011;68636;52.704;6.536;2023-04-01T21:26:10;19.73;;;7.18;;
58338;SDS011;68636;52.704;6.536;2023-04-01T21:32:35;20.98;;;7.70;;
58338;SDS011;68636;52.704;6.536;2023-04-01T22:00:25;20.00;;;9.13;;
58338;SDS011;68636;52.704;6.536;2023-04-01T22:27:44;17.15;;;8.07;;
58338;SDS011;68636;52.704;6.536;2023-04-01T22:30:23;18.52;;;8.77;;
58338;SDS011;68636;52.704;6.536;2023-04-01T22:32:50;18.70;;;10.23;;
58338;SDS011;68636;52.704;6.536;2023-04-01T22:35:40;17.92;;;7.85;;
58338;SDS011;68636;52.704;6.536;2023-04-01T22:41:05;22.55;;;8.38;;
58338;SDS011;68636;52.704;6.536;2023-04-01T22:43:44;17.58;;;7.38;;
58338;SDS011;68636;52.704;6.536;2023-04-01T22:46:17;18.20;;;8.63;;
58338;SDS011;68636;52.704;6.536;2023-04-01T22:48:57;16.88;;;6.68;;
58338;SDS011;68636;52.704;6.536;2023-04-01T22:56:55;16.48;;;7.03;;
58338;SDS011;68636;52.704;6.536;2023-04-01T23:02:28;16.13;;;7.82;;
58338;SDS011;68636;52.704;6.536;2023-04-01T23:04:58;18.35;;;7.60;;
58338;SDS011;68636;52.704;6.536;2023-04-01T23:07:30;18.80;;;7.90;;
58338;SDS011;68636;52.704;6.536;2023-04-01T23:10:20;16.85;;;7.72;;
58338;SDS011;68636;52.704;6.536;2023-04-01T23:12:53;16.73;;;7.07;;
58338;SDS011;68636;52.704;6.536;2023-04-01T23:15:23;17.17;;;6.78;;
58338;SDS011;68636;52.704;6.536;2023-04-01T23:17:53;16.77;;;7.68;;
58338;SDS011;68636;52.704;6.536;2023-04-01T23:25:54;18.33;;;8.70;;
58338;SDS011;68636;52.704;6.536;2023-04-01T23:31:01;19.50;;;7.38;;
58338;SDS011;68636;52.704;6.536;2023-04-01T23:33:28;16.23;;;7.10;;
58338;SDS011;68636;52.704;6.536;2023-04-01T23:36:13;19.23;;;7.53;;
58338;SDS011;68636;52.704;6.536;2023-04-01T23:38:41;17.58;;;6.97;;
58338;SDS011;68636;52.704;6.536;2023-04-01T23:41:08;20.50;;;8.70;;
58338;SDS011;68636;52.704;6.536;2023-04-01T23:44:10;17.75;;;8.00;;
58338;SDS011;68636;52.704;6.536;2023-04-01T23:46:38;16.42;;;6.43;;
58338;SDS011;68636;52.704;6.536;2023-04-01T23:49:14;15.93;;;6.95;;
58338;SDS011;68636;52.704;6.536;2023-04-01T23:51:50;16.10;;;6.28;;
58338;SDS011;68636;52.704;6.536;2023-04-01T23:54:48;17.52;;;6.68;;
58338;SDS011;68636;52.704;6.536;2023-04-01T23:57:30;17.75;;;8.02;;
